Time;durP1;ratioP1;P1;durP2;ratioP2;P2;SDS_P1;SDS_P2;PMS_P1;PMS_P2;Temp;Humidity;BMP_temperature;BMP_pressure;BME280_temperature;BME280_humidity;BME280_pressure;Samples;Min_cycle;Max_cycle;Signal;HPM_P1;HPM_P2
2023/08/28 00:01:54;;;;;;;2.42;0.82;;;;;;;15.81;100.00;100434.22;5037116;28;20033;-72
2023/08/28 00:04:40;;;;;;;2.75;0.70;;;;;;;15.75;100.00;100433.56;5032197;28;20036;-72
2023/08/28 00:07:27;;;;;;;6.20;1.20;;;;;;;15.72;100.00;100439.81;5027252;28;20033;-72
2023/08/28 00:10:13;;;;;;;3.00;0.80;;;;;;;15.72;100.00;100437.03;5014423;28;20128;-73
2023/08/28 00:12:59;;;;;;;2.30;0.52;;;;;;;15.69;100.00;100437.69;4999830;28;20041;-72
2023/08/28 00:15:44;;;;;;;3.92;0.75;;;;;;;15.64;100.00;100423.81;5024814;28;20045;-72
2023/08/28 00:18:30;;;;;;;2.55;0.70;;;;;;;15.65;100.00;100426.28;5037579;28;20033;-72
2023/08/28 00:21:16;;;;;;;3.40;0.75;;;;;;;15.67;100.00;100422.34;5018905;28;20462;-72
2023/08/28 00:24:02;;;;;;;2.53;0.68;;;;;;;15.63;100.00;100419.38;5024135;28;20037;-72
2023/08/28 00:26:48;;;;;;;2.38;0.70;;;;;;;15.61;100.00;100413.28;5038343;28;20417;-73
2023/08/28 00:29:34;;;;;;;3.28;0.70;;;;;;;15.59;100.00;100405.22;5005025;28;20495;-72
2023/08/28 00:32:20;;;;;;;2.55;0.80;;;;;;;15.58;100.00;100402.75;5054493;28;20490;-73
2023/08/28 00:35:06;;;;;;;3.22;0.82;;;;;;;15.59;100.00;100394.00;5008940;28;20030;-73
2023/08/28 00:37:51;;;;;;;1.65;0.70;;;;;;;15.57;100.00;100401.09;5036573;28;20494;-72
2023/08/28 00:40:40;;;;;;;4.82;1.15;;;;;;;15.57;100.00;100395.50;5038410;28;20037;-73
2023/08/28 00:43:26;;;;;;;4.15;0.90;;;;;;;15.54;100.00;100387.75;5004683;28;20072;-73
2023/08/28 00:46:12;;;;;;;2.60;0.80;;;;;;;15.56;100.00;100383.47;5010445;28;20045;-72
2023/08/28 00:48:58;;;;;;;3.78;1.25;;;;;;;15.56;100.00;100383.47;5035845;28;20071;-73
2023/08/28 00:51:43;;;;;;;3.33;0.73;;;;;;;15.56;100.00;100379.88;5018243;28;20045;-73
2023/08/28 00:54:30;;;;;;;2.90;0.70;;;;;;;15.58;100.00;100371.97;5021120;28;20033;-73
2023/08/28 00:57:16;;;;;;;3.17;0.90;;;;;;;15.57;100.00;100367.50;5024121;28;20137;-73
2023/08/28 01:00:05;;;;;;;4.22;0.80;;;;;;;15.55;100.00;100365.06;5012158;28;20044;-73
2023/08/28 01:02:51;;;;;;;3.22;0.80;;;;;;;15.56;100.00;100365.88;5011470;28;20037;-73
2023/08/28 01:06:06;;;;;;;3.92;0.88;;;;;;;15.54;100.00;100359.78;5022903;28;20041;-73
2023/08/28 01:09:13;;;;;;;2.92;0.65;;;;;;;15.57;100.00;100359.09;5029163;28;20059;-73
2023/08/28 01:12:07;;;;;;;3.40;0.68;;;;;;;15.56;100.00;100357.47;5011259;28;20041;-73
2023/08/28 01:15:05;;;;;;;1.27;0.50;;;;;;;15.56;100.00;100361.09;5018031;28;20025;-73
2023/08/28 01:17:54;;;;;;;2.42;0.77;;;;;;;15.57;100.00;100364.72;5025411;28;20045;-73
2023/08/28 01:20:40;;;;;;;4.78;0.90;;;;;;;15.56;100.00;100357.47;5009023;28;20037;-73
2023/08/28 01:23:36;;;;;;;3.15;1.02;;;;;;;15.56;100.00;100363.88;5004394;28;20038;-72
2023/08/28 01:26:22;;;;;;;2.50;0.70;;;;;;;15.58;100.00;100357.97;5023674;28;20037;-73
2023/08/28 01:29:08;;;;;;;7.00;0.93;;;;;;;15.56;100.00;100354.69;4998670;28;20521;-73
2023/08/28 01:31:53;;;;;;;2.05;0.60;;;;;;;15.56;100.00;100349.06;5037215;28;20037;-73
2023/08/28 01:34:39;;;;;;;4.80;0.98;;;;;;;15.59;100.00;100354.81;5022565;28;20033;-73
2023/08/28 01:37:26;;;;;;;1.92;0.70;;;;;;;15.57;100.00;100350.72;5003928;28;20399;-73
2023/08/28 01:40:13;;;;;;;3.65;0.82;;;;;;;15.58;100.00;100346.78;5022770;28;20102;-72
2023/08/28 01:42:59;;;;;;;2.83;0.80;;;;;;;15.57;100.00;100342.31;5006319;28;20030;-73
2023/08/28 01:45:45;;;;;;;2.47;0.70;;;;;;;15.59;100.00;100337.22;5003616;28;20116;-73
2023/08/28 01:48:33;;;;;;;1.70;0.60;;;;;;;15.59;100.00;100338.03;5012395;28;20064;-73
2023/08/28 01:51:22;;;;;;;2.78;0.80;;;;;;;15.61;100.00;100335.72;5008273;28;20034;-73
2023/08/28 01:54:08;;;;;;;2.50;0.80;;;;;;;15.60;100.00;100322.06;5035006;28;20585;-73
2023/08/28 01:56:54;;;;;;;2.00;0.77;;;;;;;15.60;100.00;100327.66;5035212;28;20029;-73
2023/08/28 01:59:40;;;;;;;3.35;0.75;;;;;;;15.59;100.00;100321.25;5008260;28;20041;-72
2023/08/28 02:02:26;;;;;;;3.47;1.05;;;;;;;15.63;100.00;100321.41;5037234;28;20056;-73
2023/08/28 02:05:11;;;;;;;2.65;0.60;;;;;;;15.62;100.00;100314.16;5035463;28;20038;-73
2023/08/28 02:07:57;;;;;;;2.83;1.02;;;;;;;15.63;100.00;100315.81;4996438;28;20116;-73
2023/08/28 02:10:43;;;;;;;3.95;0.82;;;;;;;15.65;100.00;100321.88;5040103;28;20086;-73
2023/08/28 02:13:29;;;;;;;1.80;0.70;;;;;;;15.63;100.00;100313.84;5012142;28;20045;-73
2023/08/28 02:16:15;;;;;;;3.40;0.82;;;;;;;15.63;100.00;100308.22;5028413;28;20041;-73
2023/08/28 02:19:01;;;;;;;2.00;0.77;;;;;;;15.65;100.00;100307.88;5026733;28;20053;-73
2023/08/28 02:21:47;;;;;;;2.42;0.70;;;;;;;15.62;100.00;100302.97;5027096;28;20029;-73
2023/08/28 02:24:33;;;;;;;3.10;0.90;;;;;;;15.64;100.00;100300.66;5012622;28;20061;-73
2023/08/28 02:27:19;;;;;;;4.55;1.25;;;;;;;15.63;100.00;100293.41;5027664;28;20092;-73
2023/08/28 02:30:05;;;;;;;1.98;0.70;;;;;;;15.64;100.00;100289.47;5039381;28;20057;-73
2023/08/28 02:32:51;;;;;;;1.90;0.60;;;;;;;15.64;100.00;100286.66;5025024;28;20064;-73
2023/08/28 02:35:37;;;;;;;2.40;0.68;;;;;;;15.62;100.00;100283.34;4996618;28;20026;-73
2023/08/28 02:38:23;;;;;;;2.33;0.82;;;;;;;15.63;100.00;100293.41;5051047;28;20068;-73
2023/08/28 02:41:08;;;;;;;2.38;1.10;;;;;;;15.62;100.00;100291.75;5026524;28;20033;-72
2023/08/28 02:43:54;;;;;;;1.90;1.00;;;;;;;15.60;100.00;100289.31;5026844;28;20037;-72
2023/08/28 02:46:40;;;;;;;3.60;1.67;;;;;;;15.60;100.00;100294.91;5006791;28;20041;-73
2023/08/28 02:49:26;;;;;;;3.95;0.98;;;;;;;15.56;100.00;100293.09;5021839;28;20091;-72
2023/08/28 02:52:11;;;;;;;5.00;1.30;;;;;;;15.56;100.00;100293.09;5025978;28;20072;-72
2023/08/28 02:54:57;;;;;;;2.50;1.55;;;;;;;15.51;100.00;100296.06;5020449;28;20029;-73
2023/08/28 02:57:43;;;;;;;2.95;1.30;;;;;;;15.52;100.00;100298.53;5023872;28;20401;-73
2023/08/28 03:00:29;;;;;;;5.68;1.30;;;;;;;15.52;100.00;100290.16;5032314;28;20029;-73
2023/08/28 03:03:14;;;;;;;7.53;1.88;;;;;;;15.55;100.00;100291.47;5007973;28;20048;-73
2023/08/28 03:06:01;;;;;;;2.20;0.88;;;;;;;15.56;100.00;100284.69;5036646;28;20064;-73
2023/08/28 03:08:47;;;;;;;2.88;1.30;;;;;;;15.57;100.00;100286.34;5029307;28;20089;-73
2023/08/28 03:11:36;;;;;;;3.25;1.00;;;;;;;15.55;100.00;100294.25;5011662;28;20552;-73
2023/08/28 03:14:22;;;;;;;2.63;1.10;;;;;;;15.55;100.00;100291.47;5024662;28;20554;-73
2023/08/28 03:17:08;;;;;;;5.18;1.25;;;;;;;15.59;100.00;100289.63;5039493;28;20041;-73
2023/08/28 03:19:53;;;;;;;3.45;1.45;;;;;;;15.59;100.00;100281.22;5019999;28;20052;-73
2023/08/28 03:22:39;;;;;;;1.92;1.25;;;;;;;15.59;100.00;100281.22;5018883;28;20030;-73
2023/08/28 03:25:25;;;;;;;4.43;1.30;;;;;;;15.60;100.00;100289.31;5036590;28;20040;-73
2023/08/28 03:28:11;;;;;;;3.70;1.40;;;;;;;15.62;100.00;100294.56;5025316;28;20033;-73
2023/08/28 03:30:57;;;;;;;5.18;1.48;;;;;;;15.59;100.00;100292.44;5025374;28;20053;-73
2023/08/28 03:33:43;;;;;;;4.18;1.90;;;;;;;15.57;100.00;100303.97;5024991;28;20402;-73
2023/08/28 03:36:29;;;;;;;2.38;1.50;;;;;;;15.61;100.00;100296.53;5025588;28;20034;-73
2023/08/28 03:39:14;;;;;;;3.50;1.45;;;;;;;15.62;100.00;100297.34;5025665;28;20045;-73
2023/08/28 03:42:00;;;;;;;3.70;1.40;;;;;;;15.60;100.00;100291.25;4993948;28;20038;-73
2023/08/28 03:44:46;;;;;;;4.18;1.80;;;;;;;15.62;100.00;100288.97;5022425;28;20034;-73
2023/08/28 03:47:32;;;;;;;5.20;1.60;;;;;;;15.59;100.00;100290.44;5005488;28;20096;-73
2023/08/28 03:50:17;;;;;;;4.07;1.88;;;;;;;15.61;100.00;100290.94;5009402;28;20117;-73
2023/08/28 03:53:03;;;;;;;6.75;1.63;;;;;;;15.63;100.00;100304.63;5024696;28;20473;-73
2023/08/28 03:55:49;;;;;;;2.92;1.95;;;;;;;15.63;100.00;100294.25;5007208;28;20038;-73
2023/08/28 03:58:35;;;;;;;3.53;1.70;;;;;;;15.63;100.00;100293.41;5028197;28;20069;-73
2023/08/28 04:01:20;;;;;;;5.72;2.03;;;;;;;15.60;100.00;100300.50;5052269;28;20033;-73
2023/08/28 04:04:06;;;;;;;4.50;2.13;;;;;;;15.62;100.00;100305.75;5020148;28;20045;-73
2023/08/28 04:06:52;;;;;;;3.08;1.48;;;;;;;15.61;100.00;100315.31;5024623;28;20033;-73
2023/08/28 04:09:38;;;;;;;4.68;1.70;;;;;;;15.63;100.00;100321.41;5030245;28;20473;-73
2023/08/28 04:12:24;;;;;;;4.38;1.75;;;;;;;15.67;100.00;100322.38;5038188;28;20037;-73
2023/08/28 04:15:10;;;;;;;3.72;1.50;;;;;;;15.63;100.00;100327.81;5018870;28;20449;-73
2023/08/28 04:17:57;;;;;;;2.40;1.58;;;;;;;15.65;100.00;100316.28;5008488;28;20457;-73
2023/08/28 04:20:43;;;;;;;3.88;1.70;;;;;;;15.64;100.00;100323.88;5037778;28;20045;-73
2023/08/28 04:23:29;;;;;;;3.67;1.50;;;;;;;15.67;100.00;100327.16;5024412;28;20033;-73
2023/08/28 04:26:15;;;;;;;3.65;1.50;;;;;;;15.64;100.00;100329.47;5024754;28;20562;-73
2023/08/28 04:29:00;;;;;;;3.03;1.73;;;;;;;15.63;100.00;100327.81;5012481;28;20087;-73
2023/08/28 04:31:46;;;;;;;4.85;1.65;;;;;;;15.61;100.00;100330.13;5024584;28;20034;-73
2023/08/28 04:34:32;;;;;;;3.05;1.45;;;;;;;15.63;100.00;100335.41;5023572;28;20029;-73
2023/08/28 04:37:18;;;;;;;3.13;1.58;;;;;;;15.57;100.00;100337.56;5014384;28;20095;-73
2023/08/28 04:40:04;;;;;;;2.85;1.38;;;;;;;15.53;100.00;100336.56;5037065;28;20067;-73
2023/08/28 04:42:50;;;;;;;3.00;1.50;;;;;;;15.52;100.00;100331.31;5022861;28;20113;-73
2023/08/28 04:45:35;;;;;;;2.95;1.50;;;;;;;15.51;100.00;100340.84;5024353;28;20048;-73
2023/08/28 04:48:21;;;;;;;2.30;1.20;;;;;;;15.51;100.00;100346.44;5011327;28;20040;-73
2023/08/28 04:51:07;;;;;;;2.90;1.30;;;;;;;15.46;100.00;100350.25;5024260;28;20029;-73
2023/08/28 04:53:53;;;;;;;6.47;1.40;;;;;;;15.44;100.00;100340.53;5008899;28;20038;-73
2023/08/28 04:56:39;;;;;;;2.92;1.20;;;;;;;15.42;100.00;100358.47;5013785;28;20030;-73
2023/08/28 04:59:24;;;;;;;3.38;1.30;;;;;;;15.38;100.00;100363.09;5010501;28;20038;-73
2023/08/28 05:02:10;;;;;;;2.67;1.17;;;;;;;15.35;100.00;100358.16;5023451;28;20126;-73
2023/08/28 05:04:56;;;;;;;3.35;1.40;;;;;;;15.34;100.00;100364.88;5012678;28;20049;-73
2023/08/28 05:07:42;;;;;;;4.10;1.13;;;;;;;15.26;100.00;100362.91;5035188;28;20030;-73
2023/08/28 05:10:27;;;;;;;1.15;0.90;;;;;;;15.24;100.00;100358.81;5020694;28;20045;-72
2023/08/28 05:13:13;;;;;;;2.15;1.10;;;;;;;15.25;100.00;100366.88;5009783;28;20079;-73
2023/08/28 05:15:59;;;;;;;4.03;1.40;;;;;;;15.23;100.00;100371.97;5009466;28;20048;-73
2023/08/28 05:18:45;;;;;;;5.13;1.10;;;;;;;15.17;100.00;100371.31;5022997;28;20044;-73
2023/08/28 05:21:30;;;;;;;2.45;0.98;;;;;;;15.17;100.00;100376.09;5004159;28;20030;-73
2023/08/28 05:24:16;;;;;;;1.73;1.00;;;;;;;15.17;100.00;100364.91;5012462;28;20033;-73
2023/08/28 05:27:02;;;;;;;4.15;1.25;;;;;;;15.11;100.00;100372.63;5023423;28;20375;-73
2023/08/28 05:29:49;;;;;;;3.10;1.23;;;;;;;15.11;100.00;100369.00;5023512;28;20383;-73
2023/08/28 05:32:35;;;;;;;2.03;1.30;;;;;;;15.07;100.00;100370.81;5010835;28;20038;-73
2023/08/28 05:35:21;;;;;;;2.50;0.90;;;;;;;15.11;100.00;100371.81;5010486;28;20437;-73
2023/08/28 05:38:07;;;;;;;3.00;1.02;;;;;;;15.11;100.00;100378.22;5005941;28;20457;-73
2023/08/28 05:40:52;;;;;;;2.03;0.80;;;;;;;15.12;100.00;100376.25;5017456;28;20091;-73
2023/08/28 05:43:38;;;;;;;2.03;0.88;;;;;;;15.13;100.00;100380.72;5011089;28;20040;-73
2023/08/28 05:46:24;;;;;;;3.90;1.02;;;;;;;15.08;100.00;100383.66;5025945;28;20037;-73
2023/08/28 05:49:10;;;;;;;2.65;0.80;;;;;;;15.09;100.00;100385.28;5041361;28;20034;-73
2023/08/28 05:51:56;;;;;;;3.17;1.10;;;;;;;15.09;100.00;100379.69;5036033;28;20105;-73
2023/08/28 05:54:41;;;;;;;3.03;0.90;;;;;;;15.10;100.00;100386.94;5023370;28;20034;-73
2023/08/28 05:57:27;;;;;;;2.15;0.65;;;;;;;15.07;100.00;100394.03;5034996;28;20029;-73
2023/08/28 06:00:14;;;;;;;2.42;0.80;;;;;;;15.04;100.00;100388.25;5011346;28;20045;-73
2023/08/28 06:02:59;;;;;;;1.30;0.80;;;;;;;15.05;100.00;100395.50;5022905;28;20068;-73
2023/08/28 06:05:45;;;;;;;2.72;0.80;;;;;;;15.04;100.00;100388.25;5006318;28;20470;-73
2023/08/28 06:08:31;;;;;;;3.05;0.90;;;;;;;15.01;100.00;100389.72;5018593;28;20030;-73
2023/08/28 06:11:17;;;;;;;4.03;0.77;;;;;;;15.02;100.00;100384.97;5019704;28;20040;-73
2023/08/28 06:14:03;;;;;;;1.23;0.80;;;;;;;15.02;100.00;100391.38;5036747;28;20032;-73
2023/08/28 06:16:49;;;;;;;2.17;0.90;;;;;;;15.02;100.00;100396.16;5023171;28;20072;-73
2023/08/28 06:19:35;;;;;;;2.80;0.90;;;;;;;15.08;100.00;100398.47;5012407;28;20519;-73
2023/08/28 06:22:21;;;;;;;3.53;0.73;;;;;;;15.16;100.00;100391.25;5035070;28;20036;-73
2023/08/28 06:25:08;;;;;;;3.30;0.80;;;;;;;15.23;100.00;100391.56;5004521;28;20084;-73
2023/08/28 06:27:53;;;;;;;2.83;0.80;;;;;;;15.30;100.00;100397.50;5004377;28;20046;-73
2023/08/28 06:30:39;;;;;;;3.25;0.68;;;;;;;15.39;100.00;100397.50;5023258;28;20060;-73
2023/08/28 06:33:25;;;;;;;2.03;0.68;;;;;;;15.47;100.00;100405.06;5034456;28;20034;-73
2023/08/28 06:36:11;;;;;;;1.38;0.70;;;;;;;15.53;100.00;100398.13;5035127;28;20038;-73
2023/08/28 06:38:57;;;;;;;2.08;0.60;;;;;;;15.60;100.00;100403.22;5024052;28;20116;-73
2023/08/28 06:41:42;;;;;;;1.52;0.50;;;;;;;15.65;100.00;100392.69;5022866;28;20056;-73
2023/08/28 06:44:28;;;;;;;1.95;0.60;;;;;;;15.68;100.00;100396.84;5035786;28;20060;-73
2023/08/28 06:47:14;;;;;;;1.02;0.63;;;;;;;15.74;100.00;100394.69;5034671;28;20037;-73
2023/08/28 06:50:00;;;;;;;0.63;0.50;;;;;;;15.77;100.00;100400.47;5009642;28;20097;-73
2023/08/28 06:52:46;;;;;;;1.05;0.50;;;;;;;15.78;100.00;100396.50;5008550;28;20076;-73
2023/08/28 06:55:34;;;;;;;2.83;0.85;;;;;;;15.81;100.00;100395.84;5021178;28;20033;-74
2023/08/28 06:58:20;;;;;;;2.15;0.50;;;;;;;15.82;100.00;100400.28;5017650;28;20427;-73
2023/08/28 07:01:06;;;;;;;1.52;0.63;;;;;;;15.88;100.00;100411.28;5049024;28;20561;-73
2023/08/28 07:03:52;;;;;;;3.70;0.60;;;;;;;15.89;100.00;100407.38;5026313;28;20587;-73
2023/08/28 07:06:37;;;;;;;2.10;0.70;;;;;;;15.85;100.00;100413.63;5017567;28;20032;-73
2023/08/28 07:09:24;;;;;;;2.08;0.82;;;;;;;15.92;100.00;100413.13;5028328;28;20036;-73
2023/08/28 07:12:09;;;;;;;2.80;1.00;;;;;;;16.00;100.00;100414.25;5046786;28;20033;-73
2023/08/28 07:15:13;;;;;;;3.35;0.90;;;;;;;16.12;100.00;100416.38;5006408;28;20026;-73
2023/08/28 07:17:59;;;;;;;3.38;1.02;;;;;;;16.23;100.00;100420.44;5028012;28;20086;-73
2023/08/28 07:20:45;;;;;;;4.07;0.80;;;;;;;16.31;100.00;100414.00;5031384;28;20468;-73
2023/08/28 07:23:31;;;;;;;5.35;0.98;;;;;;;16.42;100.00;100408.84;5056238;28;20068;-73
2023/08/28 07:26:17;;;;;;;2.03;0.63;;;;;;;16.49;100.00;100423.16;5039576;28;20040;-73
2023/08/28 07:29:03;;;;;;;3.13;0.80;;;;;;;16.61;100.00;100423.28;5026586;28;20041;-73
2023/08/28 07:31:49;;;;;;;4.78;0.75;;;;;;;16.72;100.00;100413.31;5008683;28;20036;-73
2023/08/28 07:34:35;;;;;;;5.28;0.70;;;;;;;16.82;100.00;100417.75;5020290;28;20183;-73
2023/08/28 07:37:20;;;;;;;4.13;0.73;;;;;;;16.99;100.00;100411.22;5035080;28;20033;-73
2023/08/28 07:40:07;;;;;;;2.75;0.50;;;;;;;17.19;100.00;100413.25;5038806;28;20124;-73
2023/08/28 07:42:52;;;;;;;4.78;0.82;;;;;;;17.37;100.00;100399.06;5025719;28;20073;-73
2023/08/28 07:45:38;;;;;;;1.58;0.50;;;;;;;17.55;100.00;100400.56;5018301;28;20472;-73
2023/08/28 07:48:24;;;;;;;1.27;0.73;;;;;;;17.73;100.00;100409.66;5019904;28;20042;-73
2023/08/28 07:51:10;;;;;;;1.65;0.60;;;;;;;17.97;100.00;100394.06;5022190;28;20402;-74
2023/08/28 07:53:56;;;;;;;3.88;0.68;;;;;;;18.15;100.00;100401.13;5025769;28;20037;-73
2023/08/28 07:56:42;;;;;;;1.25;0.50;;;;;;;18.32;100.00;100391.69;5015362;28;20044;-73
2023/08/28 07:59:28;;;;;;;2.60;0.80;;;;;;;18.47;100.00;100392.97;5012097;28;20029;-73
2023/08/28 08:02:14;;;;;;;3.08;0.80;;;;;;;18.63;100.00;100393.13;5050319;28;20041;-73
2023/08/28 08:05:00;;;;;;;1.83;0.60;;;;;;;18.83;100.00;100397.81;5013822;28;20112;-73
2023/08/28 08:07:45;;;;;;;2.65;0.60;;;;;;;18.96;100.00;100388.19;5051382;28;20033;-74
2023/08/28 08:10:32;;;;;;;3.75;0.70;;;;;;;19.08;100.00;100397.78;5018547;28;20545;-73
2023/08/28 08:13:18;;;;;;;4.65;0.75;;;;;;;19.19;100.00;100387.69;5031126;28;20041;-73
2023/08/28 08:16:06;;;;;;;1.98;0.68;;;;;;;19.30;100.00;100394.47;5037320;28;20231;-73
2023/08/28 08:18:52;;;;;;;3.03;0.70;;;;;;;19.54;100.00;100385.13;5008990;28;20068;-73
2023/08/28 08:21:38;;;;;;;1.95;0.70;;;;;;;19.69;100.00;100388.38;5024975;28;20045;-73
2023/08/28 08:24:24;;;;;;;1.00;0.43;;;;;;;19.78;100.00;100384.25;5014403;28;20033;-73
2023/08/28 08:27:09;;;;;;;2.17;0.47;;;;;;;19.93;100.00;100385.44;5037384;28;20536;-73
2023/08/28 08:29:55;;;;;;;3.50;0.60;;;;;;;19.99;100.00;100384.00;5023275;28;20042;-73
2023/08/28 08:32:43;;;;;;;3.35;0.60;;;;;;;20.06;100.00;100380.56;5018040;28;20038;-73
2023/08/28 08:35:29;;;;;;;1.33;0.60;;;;;;;20.14;100.00;100382.38;5011244;28;20072;-73
2023/08/28 08:38:14;;;;;;;1.08;0.40;;;;;;;20.28;100.00;100377.16;5008204;28;20103;-73
2023/08/28 08:41:00;;;;;;;4.25;0.68;;;;;;;20.39;100.00;100376.56;5024609;28;20033;-73
2023/08/28 08:43:46;;;;;;;1.85;0.63;;;;;;;20.54;100.00;100372.97;5008431;28;20116;-73
2023/08/28 08:46:32;;;;;;;1.88;0.73;;;;;;;20.74;100.00;100377.50;5022305;28;20037;-73
2023/08/28 08:49:20;;;;;;;2.78;0.60;;;;;;;20.97;100.00;100371.16;5036046;28;20045;-73
2023/08/28 08:52:07;;;;;;;1.55;0.70;;;;;;;21.17;100.00;100370.03;5036781;28;20094;-73
2023/08/28 08:54:56;;;;;;;2.85;0.70;;;;;;;21.30;100.00;100364.25;4997018;28;20375;-73
2023/08/28 08:57:42;;;;;;;1.63;0.60;;;;;;;21.46;100.00;100367.03;5007593;28;20051;-73
2023/08/28 09:00:28;;;;;;;2.42;0.82;;;;;;;21.48;100.00;100359.00;5036509;28;20409;-73
2023/08/28 09:03:14;;;;;;;1.58;0.88;;;;;;;21.53;100.00;100362.34;5026086;28;20033;-73
2023/08/28 09:06:00;;;;;;;2.50;0.90;;;;;;;21.50;100.00;100365.91;5034963;28;20037;-73
2023/08/28 09:08:46;;;;;;;1.77;0.80;;;;;;;21.54;100.00;100364.00;5027128;28;20060;-73
2023/08/28 09:11:32;;;;;;;2.72;0.95;;;;;;;21.56;100.00;100367.28;5036487;28;20030;-73
2023/08/28 09:14:18;;;;;;;3.13;1.00;;;;;;;21.67;100.00;100361.81;5023924;28;20044;-73
2023/08/28 09:17:04;;;;;;;2.38;1.10;;;;;;;21.76;100.00;100351.09;5006802;28;20088;-74
2023/08/28 09:19:49;;;;;;;1.20;0.65;;;;;;;21.92;100.00;100362.28;5028152;28;20045;-73
2023/08/28 09:22:35;;;;;;;0.95;0.65;;;;;;;21.99;100.00;100367.28;5010587;28;20041;-73
2023/08/28 09:25:22;;;;;;;3.28;0.80;;;;;;;22.01;100.00;100360.06;5023480;28;20068;-73
2023/08/28 09:28:08;;;;;;;1.50;0.80;;;;;;;22.00;100.00;100352.75;5024297;28;20042;-73
2023/08/28 09:30:53;;;;;;;3.60;1.02;;;;;;;22.02;100.00;100361.69;5025684;28;20149;-73
2023/08/28 09:33:46;;;;;;;1.60;0.77;;;;;;;22.07;100.00;100357.75;5023372;28;20026;-73
2023/08/28 09:36:40;;;;;;;3.75;0.90;;;;;;;22.15;100.00;100353.00;5023481;28;20398;-73
2023/08/28 09:39:25;;;;;;;0.77;0.60;;;;;;;22.24;100.00;100362.13;5004018;28;20483;-73
2023/08/28 09:42:11;;;;;;;1.98;1.00;;;;;;;22.32;100.00;100357.41;5025207;28;20025;-73
2023/08/28 09:44:57;;;;;;;2.75;1.00;;;;;;;22.36;100.00;100358.28;5021953;28;20030;-74
2023/08/28 09:47:43;;;;;;;2.17;0.90;;;;;;;22.47;100.00;100353.63;5023012;28;20120;-73
2023/08/28 09:50:29;;;;;;;3.47;1.00;;;;;;;22.60;100.00;100357.06;5022784;28;20056;-73
2023/08/28 09:53:15;;;;;;;2.35;1.17;;;;;;;22.78;100.00;100358.16;4996096;28;20092;-73
2023/08/28 09:56:01;;;;;;;1.33;0.90;;;;;;;22.88;100.00;100360.34;5032906;28;20026;-73
2023/08/28 09:58:47;;;;;;;1.85;0.73;;;;;;;22.93;100.00;100362.84;5012512;28;20046;-73
2023/08/28 10:01:34;;;;;;;1.50;0.82;;;;;;;22.91;100.00;100368.06;5003726;28;20034;-73
2023/08/28 10:04:20;;;;;;;4.53;1.17;;;;;;;22.83;100.00;100369.16;5034865;28;20069;-73
2023/08/28 10:07:06;;;;;;;3.28;1.08;;;;;;;22.78;100.00;100358.16;5003197;28;20045;-73
2023/08/28 10:09:52;;;;;;;2.67;1.20;;;;;;;22.82;100.00;100361.06;5026804;28;20044;-73
2023/08/28 10:12:38;;;;;;;2.83;1.00;;;;;;;22.83;100.00;100363.50;5008782;28;20091;-73
2023/08/28 10:15:24;;;;;;;3.97;1.50;;;;;;;22.88;100.00;100360.34;4998767;28;20506;-73
2023/08/28 10:18:16;;;;;;;2.67;1.00;;;;;;;22.90;100.00;100360.78;5023177;28;20109;-73
2023/08/28 10:21:02;;;;;;;2.17;1.20;;;;;;;22.98;100.00;100364.53;5035557;28;20038;-73
2023/08/28 10:23:48;;;;;;;2.53;1.30;;;;;;;23.07;100.00;100359.44;5035358;28;20405;-73
2023/08/28 10:26:34;;;;;;;2.55;1.00;;;;;;;23.16;100.00;100362.00;5022722;28;20379;-73
2023/08/28 10:29:20;;;;;;;4.05;1.27;;;;;;;23.24;100.00;100363.72;5022796;28;20049;-73
2023/08/28 10:32:09;;;;;;;3.33;1.30;;;;;;;23.36;100.00;100363.47;5008120;28;20038;-71
2023/08/28 10:34:55;;;;;;;4.55;1.70;;;;;;;23.44;100.00;100366.41;5039788;28;20102;-70
2023/08/28 10:37:41;;;;;;;4.53;1.63;;;;;;;23.57;100.00;100356.47;5020272;28;20068;-70
2023/08/28 10:40:27;;;;;;;4.60;1.50;;;;;;;23.63;100.00;100369.88;5007473;28;20065;-73
2023/08/28 10:43:13;;;;;;;3.72;1.60;;;;;;;23.72;100.00;100365.97;5018795;28;20037;-73
2023/08/28 10:46:00;;;;;;;5.18;1.50;;;;;;;23.82;100.00;100371.78;5009592;28;20478;-73
2023/08/28 10:48:46;;;;;;;2.38;1.35;;;;;;;23.90;100.00;100371.81;5019573;28;20033;-73
2023/08/28 10:51:35;;;;;;;3.38;1.20;;;;;;;23.89;100.00;100373.03;5020509;28;20041;-73
2023/08/28 10:54:20;;;;;;;2.72;1.15;;;;;;;23.84;100.00;100371.38;5035627;28;20551;-73
2023/08/28 10:57:10;;;;;;;4.35;1.63;;;;;;;23.75;100.00;100363.16;5030958;28;20037;-73
2023/08/28 11:00:00;;;;;;;3.08;1.50;;;;;;;23.59;98.62;100368.19;5028092;28;20052;-73
2023/08/28 11:03:06;;;;;;;3.90;1.52;;;;;;;23.52;100.00;100368.13;5012350;28;20038;-73
2023/08/28 11:05:52;;;;;;;5.38;1.60;;;;;;;23.50;100.00;100360.00;5024868;28;20100;-73
2023/08/28 11:08:37;;;;;;;4.63;1.48;;;;;;;23.56;100.00;100357.63;5008355;28;20044;-73
2023/08/28 11:11:23;;;;;;;4.53;1.42;;;;;;;23.67;100.00;100361.41;5017645;28;20483;-73
2023/08/28 11:14:13;;;;;;;4.35;1.60;;;;;;;23.73;100.00;100359.91;5021768;28;20442;-73
2023/08/28 11:17:05;;;;;;;3.75;1.50;;;;;;;23.86;100.00;100358.44;5007983;28;20501;-73
2023/08/28 11:19:56;;;;;;;4.55;1.60;;;;;;;23.96;100.00;100350.41;5039972;28;20440;-73
2023/08/28 11:22:42;;;;;;;6.15;1.60;;;;;;;24.08;100.00;100353.00;5027521;28;20037;-73
2023/08/28 11:25:35;;;;;;;4.35;1.40;;;;;;;24.13;100.00;100354.66;5025718;28;20406;-73
2023/08/28 11:28:32;;;;;;;4.43;1.40;;;;;;;24.15;100.00;100366.41;5025421;28;20047;-73
2023/08/28 11:31:21;;;;;;;5.05;1.48;;;;;;;24.12;98.35;100355.84;5026032;28;20060;-73
2023/08/28 11:34:12;;;;;;;4.25;1.52;;;;;;;24.16;99.37;100370.91;5013462;28;20060;-73
2023/08/28 11:36:59;;;;;;;4.93;1.50;;;;;;;24.11;100.00;100374.91;5016284;28;20042;-73
2023/08/28 11:39:46;;;;;;;5.25;1.40;;;;;;;24.07;100.00;100377.72;5038347;28;20050;-73
2023/08/28 11:42:32;;;;;;;4.03;1.58;;;;;;;23.90;99.97;100375.47;5036791;28;20043;-73
2023/08/28 11:45:19;;;;;;;4.53;1.60;;;;;;;23.85;100.00;100378.69;5006573;28;20030;-73
2023/08/28 11:48:06;;;;;;;5.72;1.40;;;;;;;23.71;100.00;100373.66;5023657;28;20030;-73
2023/08/28 11:51:03;;;;;;;3.15;1.40;;;;;;;23.86;100.00;100366.94;5025537;28;20316;-73
2023/08/28 11:53:49;;;;;;;2.70;1.27;;;;;;;23.95;98.61;100369.47;5025552;28;20026;-73
2023/08/28 11:56:34;;;;;;;4.60;1.40;;;;;;;24.01;96.74;100367.91;5000619;28;20041;-73
2023/08/28 11:59:20;;;;;;;4.13;1.40;;;;;;;24.08;99.18;100375.69;5010777;28;20056;-72
2023/08/28 12:02:08;;;;;;;3.67;1.27;;;;;;;24.13;99.29;100372.50;5005629;28;20053;-73
2023/08/28 12:04:54;;;;;;;2.58;1.30;;;;;;;24.17;96.59;100372.53;5027193;28;20092;-73
2023/08/28 12:07:43;;;;;;;2.35;1.05;;;;;;;24.13;93.21;100381.00;5022688;28;20401;-73
2023/08/28 12:10:29;;;;;;;3.28;1.30;;;;;;;24.19;94.35;100376.59;5014274;28;20037;-74
2023/08/28 12:13:19;;;;;;;4.28;1.30;;;;;;;24.11;87.72;100377.75;5024558;28;20034;-73
2023/08/28 12:16:14;;;;;;;3.97;1.38;;;;;;;24.10;85.82;100378.97;5012686;28;20049;-72
2023/08/28 12:19:00;;;;;;;4.50;1.20;;;;;;;24.14;88.58;100374.13;5026739;28;20121;-73
2023/08/28 12:21:46;;;;;;;3.75;1.20;;;;;;;24.15;86.22;100374.94;5024319;28;20421;-73
2023/08/28 12:24:32;;;;;;;3.45;1.20;;;;;;;24.23;85.72;100370.97;5004693;28;20029;-73
2023/08/28 12:27:24;;;;;;;2.72;1.05;;;;;;;24.37;88.77;100367.44;5025153;28;20116;-73
2023/08/28 12:30:19;;;;;;;4.30;1.70;;;;;;;24.52;85.56;100386.28;5024099;28;20072;-73
2023/08/28 12:33:06;;;;;;;2.78;1.27;;;;;;;24.61;87.93;100380.25;5024373;28;20072;-73
2023/08/28 12:35:52;;;;;;;5.95;1.60;;;;;;;24.45;85.28;100386.19;5024751;28;20367;-73
2023/08/28 12:38:48;;;;;;;3.42;1.20;;;;;;;24.37;86.59;100390.16;5010177;28;20033;-73
2023/08/28 12:41:34;;;;;;;3.00;1.30;;;;;;;24.37;90.76;100390.94;5019149;28;20048;-72
2023/08/28 12:44:21;;;;;;;4.57;1.38;;;;;;;24.44;91.77;100390.25;5043619;28;20033;-73
2023/08/28 12:47:08;;;;;;;3.70;1.27;;;;;;;24.55;90.24;100388.31;4999089;28;20042;-73